Iskander — 3V4713 — position and weather

sailwx.info

Track history (hours):
 
Tides and Currents Weather Stations Pressure Air Temp Water Temp Dewpoint Dewpoint Depression Visibility Wind Speed Wind Dir Waves Ship Positions

Iskander

Last reported at 2017-Nov-23 15:23 UTC. Time now 2017-Nov-23 16:48 UTC.
Position N 36°23' E 022°40'.

Length 81 m; draft 5.5 m.

Type: Cargo ship. MMSI: 672296000.

Date/timePositionNaut miles runAvg speedWind from/ knotsBaromVisibWave heightAir tempDewpointWater temp
2017-Nov-23 15:23N 36°23' E 022°40'4 9.3
2017-Nov-23 14:56N 36°24' E 022°45'47 8.6
2017-Nov-23 09:27N 36°50' E 023°33'8 9.7
2017-Nov-23 08:39N 36°57' E 023°39'3 9.8
2017-Nov-23 08:22N 36°59' E 023°41'4 9.7
2017-Nov-23 07:58N 37°03' E 023°43'  
2017-Nov-16 21:33N 37°38' E 023°53'0 9.7
2017-Nov-16 21:30N 37°38' E 023°52'5 9.5
2017-Nov-16 21:00N 37°39' E 023°46'4 9.0
2017-Nov-16 20:30N 37°42' E 023°41'5 9.8
2017-Nov-16 20:00N 37°46' E 023°39'5 9.1
2017-Nov-16 19:30N 37°50' E 023°35'510.1
2017-Nov-16 19:00N 37°50' E 023°29'510.2
2017-Nov-16 18:30N 37°51' E 023°22'510.0
2017-Nov-16 18:00N 37°52' E 023°16'5 9.6
2017-Nov-16 17:30N 37°53' E 023°10'5 9.1
2017-Nov-16 17:00N 37°54' E 023°05'3 5.5
2017-Nov-16 16:28N 37°55' E 023°02'0 0.0
2017-Nov-16 15:58N 37°55' E 023°01'0 0.0
2017-Nov-16 15:28N 37°55' E 023°01'0 0.0
2017-Nov-16 14:58N 37°55' E 023°01'0 0.0
2017-Nov-16 14:28N 37°55' E 023°01'0 0.0
2017-Nov-16 13:58N 37°55' E 023°01'0 0.0
2017-Nov-16 13:28N 37°55' E 023°01'0 0.0
2017-Nov-16 12:58N 37°55' E 023°01'0 0.0
2017-Nov-16 12:28N 37°55' E 023°01'0 0.0
2017-Nov-16 11:58N 37°55' E 023°01'0 0.0
2017-Nov-16 11:28N 37°55' E 023°02'0 0.0
2017-Nov-16 10:58N 37°55' E 023°02'0 0.0
2017-Nov-16 10:25N 37°55' E 023°01'0 0.0
2017-Nov-16 09:58N 37°55' E 023°01'0 0.0
2017-Nov-16 09:25N 37°55' E 023°02'0 0.0
2017-Nov-16 08:58N 37°55' E 023°01'0 0.0
2017-Nov-16 08:28N 37°55' E 023°01'0 0.0
2017-Nov-16 07:58N 37°55' E 023°01'0 0.0
2017-Nov-16 07:25N 37°55' E 023°01'0 0.0
2017-Nov-16 06:58N 37°55' E 023°02'0 0.0
2017-Nov-16 06:28N 37°55' E 023°01'0 0.0
2017-Nov-16 05:58N 37°55' E 023°02'0 0.0
2017-Nov-16 05:25N 37°55' E 023°01'0 0.0
2017-Nov-16 04:58N 37°55' E 023°01'0 0.0
2017-Nov-16 04:28N 37°55' E 023°01'0 0.0
2017-Nov-16 03:55N 37°55' E 023°02'0 0.0
2017-Nov-16 03:28N 37°55' E 023°01'0 0.0
2017-Nov-16 02:58N 37°55' E 023°01'0 0.0
2017-Nov-16 02:25N 37°55' E 023°01'0 0.0
2017-Nov-16 01:58N 37°55' E 023°01'0 0.0
2017-Nov-16 01:28N 37°55' E 023°01'0 0.0
2017-Nov-16 00:58N 37°55' E 023°01'0 0.0
2017-Nov-16 00:25N 37°55' E 023°01'0 0.0
2017-Nov-15 23:58N 37°55' E 023°01'0 0.0
2017-Nov-15 23:28N 37°55' E 023°01'0 0.0
2017-Nov-15 22:58N 37°55' E 023°02'0 0.0
2017-Nov-15 22:28N 37°55' E 023°01'0 0.0
2017-Nov-15 21:58N 37°55' E 023°01'0 0.0
2017-Nov-15 21:28N 37°55' E 023°02'0 0.0
2017-Nov-15 20:58N 37°55' E 023°02'0 0.0
2017-Nov-15 20:28N 37°55' E 023°01'0 0.0
2017-Nov-15 19:58N 37°55' E 023°02'0 0.0
2017-Nov-15 19:28N 37°55' E 023°01'0 0.0
2017-Nov-15 18:58N 37°55' E 023°02'0 0.0
2017-Nov-15 18:28N 37°55' E 023°02'0 0.0
2017-Nov-15 17:58N 37°55' E 023°01'0 0.0
2017-Nov-15 17:28N 37°55' E 023°01'0 0.0
2017-Nov-15 16:58N 37°55' E 023°01'0 0.0
2017-Nov-15 16:28N 37°55' E 023°01'0 0.0
2017-Nov-15 15:58N 37°55' E 023°01'0 0.0
2017-Nov-15 15:28N 37°55' E 023°01'0 0.0
2017-Nov-15 14:58N 37°55' E 023°02'0 0.0
2017-Nov-15 14:28N 37°55' E 023°01'0 0.0
2017-Nov-15 13:58N 37°55' E 023°01'0 0.0
2017-Nov-15 13:28N 37°55' E 023°01'0 0.0
2017-Nov-15 12:58N 37°55' E 023°01'0 0.0
2017-Nov-15 12:28N 37°55' E 023°01'0 0.0
2017-Nov-15 11:55N 37°55' E 023°01'0 0.0
2017-Nov-15 11:28N 37°55' E 023°01'0 0.0
2017-Nov-15 10:58N 37°55' E 023°01'0 0.0
2017-Nov-15 10:28N 37°55' E 023°01'0 0.0
2017-Nov-15 09:58N 37°55' E 023°01'0 0.0
2017-Nov-15 09:28N 37°55' E 023°01'0 0.0
2017-Nov-15 08:55N 37°55' E 023°02'0 0.0
2017-Nov-15 08:28N 37°55' E 023°01'0 0.0
2017-Nov-15 08:01N 37°55' E 023°02'0 0.0
2017-Nov-15 07:31N 37°55' E 023°01'0 0.0
2017-Nov-15 07:01N 37°55' E 023°02'0 0.0
2017-Nov-15 06:30N 37°55' E 023°01'0 0.0
2017-Nov-15 06:00N 37°55' E 023°01'0 0.0
2017-Nov-15 05:30N 37°55' E 023°01'0 0.0
2017-Nov-15 05:00N 37°55' E 023°01'0 0.0
2017-Nov-15 04:30N 37°55' E 023°01'0 0.0
2017-Nov-15 04:00N 37°55' E 023°02'0 0.0
2017-Nov-15 03:30N 37°55' E 023°02'0 0.0
2017-Nov-15 03:00N 37°55' E 023°01'0 0.0
2017-Nov-15 02:30N 37°55' E 023°02'0 0.0
2017-Nov-15 02:00N 37°55' E 023°01'0 0.0
2017-Nov-15 01:30N 37°55' E 023°01'0 0.0
2017-Nov-15 01:00N 37°55' E 023°02'0 0.0
2017-Nov-15 00:30N 37°55' E 023°01'0 0.0
2017-Nov-15 00:00N 37°55' E 023°01'0 0.0
2017-Nov-14 23:30N 37°55' E 023°01'0 0.0
2017-Nov-14 23:00N 37°55' E 023°01'0 0.0
2017-Nov-14 22:30N 37°55' E 023°01'0 0.0
2017-Nov-14 22:00N 37°55' E 023°01'0 0.0
2017-Nov-14 21:30N 37°55' E 023°01'0 0.0
2017-Nov-14 21:00N 37°55' E 023°01'0 0.0
2017-Nov-14 20:30N 37°55' E 023°01'0 0.0
2017-Nov-14 20:00N 37°55' E 023°01'0 0.0
2017-Nov-14 19:30N 37°55' E 023°02'0 0.0
2017-Nov-14 19:00N 37°55' E 023°02'0 0.0
2017-Nov-14 18:30N 37°55' E 023°02'0 0.0
2017-Nov-14 18:00N 37°55' E 023°01'0 0.0
2017-Nov-14 17:30N 37°55' E 023°02'0 0.0
2017-Nov-14 17:00N 37°55' E 023°01'0 0.0
2017-Nov-14 16:30N 37°55' E 023°02'0 0.0
2017-Nov-14 16:00N 37°55' E 023°01'0 0.0
2017-Nov-14 15:30N 37°55' E 023°01'0 0.0
2017-Nov-14 15:00N 37°55' E 023°02'0 0.0
2017-Nov-14 14:30N 37°55' E 023°01'0 0.0
2017-Nov-14 14:00N 37°55' E 023°01'0 0.0
2017-Nov-14 13:30N 37°55' E 023°01'0 0.0
2017-Nov-14 13:00N 37°55' E 023°01'0 0.0
2017-Nov-14 12:30N 37°55' E 023°01'0 0.0
2017-Nov-14 12:00N 37°55' E 023°02'0 0.0
2017-Nov-14 11:30N 37°55' E 023°02'0 0.0
2017-Nov-14 11:00N 37°55' E 023°02'0 0.0
2017-Nov-14 10:30N 37°55' E 023°01'0 0.0
2017-Nov-14 10:00N 37°55' E 023°01'0 0.0
2017-Nov-14 09:27N 37°55' E 023°02'0 0.0
2017-Nov-14 09:00N 37°55' E 023°01'0 0.0
2017-Nov-14 08:30N 37°55' E 023°01'0 0.0
2017-Nov-14 08:00N 37°55' E 023°02'0 0.0
2017-Nov-14 07:30N 37°55' E 023°02'0 0.0
2017-Nov-14 07:00N 37°55' E 023°01'0 0.0
2017-Nov-14 06:30N 37°55' E 023°01'0 0.0
2017-Nov-14 06:00N 37°55' E 023°02'0 0.0
2017-Nov-14 05:30N 37°55' E 023°02'0 0.0
2017-Nov-14 05:00N 37°55' E 023°01'0 0.0
2017-Nov-14 04:30N 37°55' E 023°01'0 0.0
2017-Nov-14 04:00N 37°55' E 023°01'0 0.0
2017-Nov-14 03:30N 37°55' E 023°01'0 0.0
2017-Nov-14 03:00N 37°55' E 023°01'0 0.0
2017-Nov-14 02:30N 37°55' E 023°01'0 0.0
2017-Nov-14 02:00N 37°55' E 023°01'0 0.0
2017-Nov-14 01:30N 37°55' E 023°02'0 0.0
2017-Nov-14 01:00N 37°55' E 023°01'0 0.0
2017-Nov-14 00:30N 37°55' E 023°01'0 0.0
2017-Nov-14 00:00N 37°55' E 023°01'0 0.0
2017-Nov-13 23:30N 37°55' E 023°01'0 0.0
2017-Nov-13 23:00N 37°55' E 023°02'0 0.0
2017-Nov-13 22:30N 37°55' E 023°02'0 0.0
2017-Nov-13 22:00N 37°55' E 023°01'  
Track history (hours):
 
Tides and Currents Weather Stations Pressure Air Temp Water Temp Dewpoint Dewpoint Depression Visibility Wind Speed Wind Dir Waves Ship Positions

Iskander

Last reported at 2017-Nov-23 15:23 UTC. Time now 2017-Nov-23 16:48 UTC.
Position N 36°23' E 022°40'.

Length 81 m; draft 5.5 m.

Type: Cargo ship. MMSI: 672296000.

Date/timePositionNaut miles runAvg speedWind from/ knotsBaromVisibWave heightAir tempDewpointWater temp
2017-Nov-23 15:23N 36°23' E 022°40'4 9.3
2017-Nov-23 14:56N 36°24' E 022°45'47 8.6
2017-Nov-23 09:27N 36°50' E 023°33'8 9.7
2017-Nov-23 08:39N 36°57' E 023°39'3 9.8
2017-Nov-23 08:22N 36°59' E 023°41'4 9.7
2017-Nov-23 07:58N 37°03' E 023°43'  
2017-Nov-16 21:33N 37°38' E 023°53'0 9.7
2017-Nov-16 21:30N 37°38' E 023°52'5 9.5
2017-Nov-16 21:00N 37°39' E 023°46'4 9.0
2017-Nov-16 20:30N 37°42' E 023°41'5 9.8
2017-Nov-16 20:00N 37°46' E 023°39'5 9.1
2017-Nov-16 19:30N 37°50' E 023°35'510.1
2017-Nov-16 19:00N 37°50' E 023°29'510.2
2017-Nov-16 18:30N 37°51' E 023°22'510.0
2017-Nov-16 18:00N 37°52' E 023°16'5 9.6
2017-Nov-16 17:30N 37°53' E 023°10'5 9.1
2017-Nov-16 17:00N 37°54' E 023°05'3 5.5
2017-Nov-16 16:28N 37°55' E 023°02'0 0.0
2017-Nov-16 15:58N 37°55' E 023°01'0 0.0
2017-Nov-16 15:28N 37°55' E 023°01'0 0.0
2017-Nov-16 14:58N 37°55' E 023°01'0 0.0
2017-Nov-16 14:28N 37°55' E 023°01'0 0.0
2017-Nov-16 13:58N 37°55' E 023°01'0 0.0
2017-Nov-16 13:28N 37°55' E 023°01'0 0.0
2017-Nov-16 12:58N 37°55' E 023°01'0 0.0
2017-Nov-16 12:28N 37°55' E 023°01'0 0.0
2017-Nov-16 11:58N 37°55' E 023°01'0 0.0
2017-Nov-16 11:28N 37°55' E 023°02'0 0.0
2017-Nov-16 10:58N 37°55' E 023°02'0 0.0
2017-Nov-16 10:25N 37°55' E 023°01'0 0.0
2017-Nov-16 09:58N 37°55' E 023°01'0 0.0
2017-Nov-16 09:25N 37°55' E 023°02'0 0.0
2017-Nov-16 08:58N 37°55' E 023°01'0 0.0
2017-Nov-16 08:28N 37°55' E 023°01'0 0.0
2017-Nov-16 07:58N 37°55' E 023°01'0 0.0
2017-Nov-16 07:25N 37°55' E 023°01'0 0.0
2017-Nov-16 06:58N 37°55' E 023°02'0 0.0
2017-Nov-16 06:28N 37°55' E 023°01'0 0.0
2017-Nov-16 05:58N 37°55' E 023°02'0 0.0
2017-Nov-16 05:25N 37°55' E 023°01'0 0.0
2017-Nov-16 04:58N 37°55' E 023°01'0 0.0
2017-Nov-16 04:28N 37°55' E 023°01'0 0.0
2017-Nov-16 03:55N 37°55' E 023°02'0 0.0
2017-Nov-16 03:28N 37°55' E 023°01'0 0.0
2017-Nov-16 02:58N 37°55' E 023°01'0 0.0
2017-Nov-16 02:25N 37°55' E 023°01'0 0.0
2017-Nov-16 01:58N 37°55' E 023°01'0 0.0
2017-Nov-16 01:28N 37°55' E 023°01'0 0.0
2017-Nov-16 00:58N 37°55' E 023°01'0 0.0
2017-Nov-16 00:25N 37°55' E 023°01'0 0.0
2017-Nov-15 23:58N 37°55' E 023°01'0 0.0
2017-Nov-15 23:28N 37°55' E 023°01'0 0.0
2017-Nov-15 22:58N 37°55' E 023°02'0 0.0
2017-Nov-15 22:28N 37°55' E 023°01'0 0.0
2017-Nov-15 21:58N 37°55' E 023°01'0 0.0
2017-Nov-15 21:28N 37°55' E 023°02'0 0.0
2017-Nov-15 20:58N 37°55' E 023°02'0 0.0
2017-Nov-15 20:28N 37°55' E 023°01'0 0.0
2017-Nov-15 19:58N 37°55' E 023°02'0 0.0
2017-Nov-15 19:28N 37°55' E 023°01'0 0.0
2017-Nov-15 18:58N 37°55' E 023°02'0 0.0
2017-Nov-15 18:28N 37°55' E 023°02'0 0.0
2017-Nov-15 17:58N 37°55' E 023°01'0 0.0
2017-Nov-15 17:28N 37°55' E 023°01'0 0.0
2017-Nov-15 16:58N 37°55' E 023°01'0 0.0
2017-Nov-15 16:28N 37°55' E 023°01'0 0.0
2017-Nov-15 15:58N 37°55' E 023°01'0 0.0
2017-Nov-15 15:28N 37°55' E 023°01'0 0.0
2017-Nov-15 14:58N 37°55' E 023°02'0 0.0
2017-Nov-15 14:28N 37°55' E 023°01'0 0.0
2017-Nov-15 13:58N 37°55' E 023°01'0 0.0
2017-Nov-15 13:28N 37°55' E 023°01'0 0.0
2017-Nov-15 12:58N 37°55' E 023°01'0 0.0
2017-Nov-15 12:28N 37°55' E 023°01'0 0.0
2017-Nov-15 11:55N 37°55' E 023°01'0 0.0
2017-Nov-15 11:28N 37°55' E 023°01'0 0.0
2017-Nov-15 10:58N 37°55' E 023°01'0 0.0
2017-Nov-15 10:28N 37°55' E 023°01'0 0.0
2017-Nov-15 09:58N 37°55' E 023°01'0 0.0
2017-Nov-15 09:28N 37°55' E 023°01'0 0.0
2017-Nov-15 08:55N 37°55' E 023°02'0 0.0
2017-Nov-15 08:28N 37°55' E 023°01'0 0.0
2017-Nov-15 08:01N 37°55' E 023°02'0 0.0
2017-Nov-15 07:31N 37°55' E 023°01'0 0.0
2017-Nov-15 07:01N 37°55' E 023°02'0 0.0
2017-Nov-15 06:30N 37°55' E 023°01'0 0.0
2017-Nov-15 06:00N 37°55' E 023°01'0 0.0
2017-Nov-15 05:30N 37°55' E 023°01'0 0.0
2017-Nov-15 05:00N 37°55' E 023°01'0 0.0
2017-Nov-15 04:30N 37°55' E 023°01'0 0.0
2017-Nov-15 04:00N 37°55' E 023°02'0 0.0
2017-Nov-15 03:30N 37°55' E 023°02'0 0.0
2017-Nov-15 03:00N 37°55' E 023°01'0 0.0
2017-Nov-15 02:30N 37°55' E 023°02'0 0.0
2017-Nov-15 02:00N 37°55' E 023°01'0 0.0
2017-Nov-15 01:30N 37°55' E 023°01'0 0.0
2017-Nov-15 01:00N 37°55' E 023°02'0 0.0
2017-Nov-15 00:30N 37°55' E 023°01'0 0.0
2017-Nov-15 00:00N 37°55' E 023°01'0 0.0
2017-Nov-14 23:30N 37°55' E 023°01'0 0.0
2017-Nov-14 23:00N 37°55' E 023°01'0 0.0
2017-Nov-14 22:30N 37°55' E 023°01'0 0.0
2017-Nov-14 22:00N 37°55' E 023°01'0 0.0
2017-Nov-14 21:30N 37°55' E 023°01'0 0.0
2017-Nov-14 21:00N 37°55' E 023°01'0 0.0
2017-Nov-14 20:30N 37°55' E 023°01'0 0.0
2017-Nov-14 20:00N 37°55' E 023°01'0 0.0
2017-Nov-14 19:30N 37°55' E 023°02'0 0.0
2017-Nov-14 19:00N 37°55' E 023°02'0 0.0
2017-Nov-14 18:30N 37°55' E 023°02'0 0.0
2017-Nov-14 18:00N 37°55' E 023°01'0 0.0
2017-Nov-14 17:30N 37°55' E 023°02'0 0.0
2017-Nov-14 17:00N 37°55' E 023°01'0 0.0
2017-Nov-14 16:30N 37°55' E 023°02'0 0.0
2017-Nov-14 16:00N 37°55' E 023°01'0 0.0
2017-Nov-14 15:30N 37°55' E 023°01'0 0.0
2017-Nov-14 15:00N 37°55' E 023°02'0 0.0
2017-Nov-14 14:30N 37°55' E 023°01'0 0.0
2017-Nov-14 14:00N 37°55' E 023°01'0 0.0
2017-Nov-14 13:30N 37°55' E 023°01'0 0.0
2017-Nov-14 13:00N 37°55' E 023°01'0 0.0
2017-Nov-14 12:30N 37°55' E 023°01'0 0.0
2017-Nov-14 12:00N 37°55' E 023°02'0 0.0
2017-Nov-14 11:30N 37°55' E 023°02'0 0.0
2017-Nov-14 11:00N 37°55' E 023°02'0 0.0
2017-Nov-14 10:30N 37°55' E 023°01'0 0.0
2017-Nov-14 10:00N 37°55' E 023°01'0 0.0
2017-Nov-14 09:27N 37°55' E 023°02'0 0.0
2017-Nov-14 09:00N 37°55' E 023°01'0 0.0
2017-Nov-14 08:30N 37°55' E 023°01'0 0.0
2017-Nov-14 08:00N 37°55' E 023°02'0 0.0
2017-Nov-14 07:30N 37°55' E 023°02'0 0.0
2017-Nov-14 07:00N 37°55' E 023°01'0 0.0
2017-Nov-14 06:30N 37°55' E 023°01'0 0.0
2017-Nov-14 06:00N 37°55' E 023°02'0 0.0
2017-Nov-14 05:30N 37°55' E 023°02'0 0.0
2017-Nov-14 05:00N 37°55' E 023°01'0 0.0
2017-Nov-14 04:30N 37°55' E 023°01'0 0.0
2017-Nov-14 04:00N 37°55' E 023°01'0 0.0
2017-Nov-14 03:30N 37°55' E 023°01'0 0.0
2017-Nov-14 03:00N 37°55' E 023°01'0 0.0
2017-Nov-14 02:30N 37°55' E 023°01'0 0.0
2017-Nov-14 02:00N 37°55' E 023°01'0 0.0
2017-Nov-14 01:30N 37°55' E 023°02'0 0.0
2017-Nov-14 01:00N 37°55' E 023°01'0 0.0
2017-Nov-14 00:30N 37°55' E 023°01'0 0.0
2017-Nov-14 00:00N 37°55' E 023°01'0 0.0
2017-Nov-13 23:30N 37°55' E 023°01'0 0.0
2017-Nov-13 23:00N 37°55' E 023°02'0 0.0
2017-Nov-13 22:30N 37°55' E 023°02'0 0.0
2017-Nov-13 22:00N 37°55' E 023°01'  

Dump ship's entire track history